sensor_id;sensor_type;location;lat;lon;timestamp;P1;durP1;ratioP1;P2;durP2;ratioP2
56427;SDS011;42331;53.578;9.760;2023-02-01T00:02:28;38.53;;;3.85;;
56427;SDS011;42331;53.578;9.760;2023-02-01T00:04:59;28.00;;;3.13;;
56427;SDS011;42331;53.578;9.760;2023-02-01T00:07:30;34.22;;;4.05;;
56427;SDS011;42331;53.578;9.760;2023-02-01T00:10:00;29.48;;;4.28;;
56427;SDS011;42331;53.578;9.760;2023-02-01T00:12:31;29.38;;;4.65;;
56427;SDS011;42331;53.578;9.760;2023-02-01T00:15:02;17.42;;;2.63;;
56427;SDS011;42331;53.578;9.760;2023-02-01T00:17:33;30.90;;;4.00;;
56427;SDS011;42331;53.578;9.760;2023-02-01T00:20:03;26.13;;;4.28;;
56427;SDS011;42331;53.578;9.760;2023-02-01T00:22:35;24.45;;;4.20;;
56427;SDS011;42331;53.578;9.760;2023-02-01T00:25:05;27.90;;;3.75;;
56427;SDS011;42331;53.578;9.760;2023-02-01T00:27:36;39.75;;;4.55;;
56427;SDS011;42331;53.578;9.760;2023-02-01T00:30:07;25.55;;;4.30;;
56427;SDS011;42331;53.578;9.760;2023-02-01T00:32:38;36.30;;;4.38;;
56427;SDS011;42331;53.578;9.760;2023-02-01T00:35:09;31.50;;;3.92;;
56427;SDS011;42331;53.578;9.760;2023-02-01T00:37:40;32.20;;;4.43;;
56427;SDS011;42331;53.578;9.760;2023-02-01T00:40:10;32.72;;;4.68;;
56427;SDS011;42331;53.578;9.760;2023-02-01T00:42:41;34.85;;;4.47;;
56427;SDS011;42331;53.578;9.760;2023-02-01T00:45:12;29.83;;;4.00;;
56427;SDS011;42331;53.578;9.760;2023-02-01T00:47:43;33.78;;;4.75;;
56427;SDS011;42331;53.578;9.760;2023-02-01T00:50:13;33.10;;;4.55;;
56427;SDS011;42331;53.578;9.760;2023-02-01T00:52:44;36.53;;;5.53;;
56427;SDS011;42331;53.578;9.760;2023-02-01T00:55:15;33.30;;;5.03;;
56427;SDS011;42331;53.578;9.760;2023-02-01T00:57:46;32.80;;;5.05;;
56427;SDS011;42331;53.578;9.760;2023-02-01T01:00:16;35.67;;;5.35;;
56427;SDS011;42331;53.578;9.760;2023-02-01T01:02:48;35.40;;;6.30;;
56427;SDS011;42331;53.578;9.760;2023-02-01T01:05:19;25.20;;;4.38;;
56427;SDS011;42331;53.578;9.760;2023-02-01T01:07:49;40.47;;;5.35;;
56427;SDS011;42331;53.578;9.760;2023-02-01T01:10:20;34.60;;;5.18;;
56427;SDS011;42331;53.578;9.760;2023-02-01T01:12:51;42.97;;;5.22;;
56427;SDS011;42331;53.578;9.760;2023-02-01T01:15:21;30.80;;;5.95;;
56427;SDS011;42331;53.578;9.760;2023-02-01T01:17:52;38.42;;;4.55;;
56427;SDS011;42331;53.578;9.760;2023-02-01T01:20:23;32.40;;;4.97;;
56427;SDS011;42331;53.578;9.760;2023-02-01T01:22:53;41.05;;;5.28;;
56427;SDS011;42331;53.578;9.760;2023-02-01T01:25:24;33.83;;;4.63;;
56427;SDS011;42331;53.578;9.760;2023-02-01T01:27:54;41.53;;;4.88;;
56427;SDS011;42331;53.578;9.760;2023-02-01T01:30:25;37.65;;;5.32;;
56427;SDS011;42331;53.578;9.760;2023-02-01T01:32:56;29.90;;;4.20;;
56427;SDS011;42331;53.578;9.760;2023-02-01T01:35:28;31.95;;;5.25;;
56427;SDS011;42331;53.578;9.760;2023-02-01T01:38:00;43.45;;;4.95;;
56427;SDS011;42331;53.578;9.760;2023-02-01T01:40:32;41.65;;;5.30;;
56427;SDS011;42331;53.578;9.760;2023-02-01T01:43:03;34.63;;;4.72;;
56427;SDS011;42331;53.578;9.760;2023-02-01T01:45:42;31.88;;;4.93;;
56427;SDS011;42331;53.578;9.760;2023-02-01T01:48:18;39.78;;;5.78;;
56427;SDS011;42331;53.578;9.760;2023-02-01T01:50:56;36.42;;;4.80;;
56427;SDS011;42331;53.578;9.760;2023-02-01T01:53:32;39.28;;;4.97;;
56427;SDS011;42331;53.578;9.760;2023-02-01T01:56:07;46.72;;;4.68;;
56427;SDS011;42331;53.578;9.760;2023-02-01T01:58:37;29.63;;;4.90;;
56427;SDS011;42331;53.578;9.760;2023-02-01T02:01:09;35.63;;;5.37;;
56427;SDS011;42331;53.578;9.760;2023-02-01T02:03:41;42.08;;;6.18;;
56427;SDS011;42331;53.578;9.760;2023-02-01T02:06:26;34.00;;;4.85;;
56427;SDS011;42331;53.578;9.760;2023-02-01T02:09:15;47.15;;;5.75;;
56427;SDS011;42331;53.578;9.760;2023-02-01T02:11:47;35.35;;;5.90;;
56427;SDS011;42331;53.578;9.760;2023-02-01T02:14:17;34.03;;;4.78;;
56427;SDS011;42331;53.578;9.760;2023-02-01T02:27:59;37.17;;;4.97;;
56427;SDS011;42331;53.578;9.760;2023-02-01T02:34:04;44.45;;;5.82;;
56427;SDS011;42331;53.578;9.760;2023-02-01T02:39:31;41.60;;;5.10;;
56427;SDS011;42331;53.578;9.760;2023-02-01T02:45:34;43.47;;;5.63;;
56427;SDS011;42331;53.578;9.760;2023-02-01T02:48:45;42.42;;;5.63;;
56427;SDS011;42331;53.578;9.760;2023-02-01T02:51:27;33.10;;;5.00;;
56427;SDS011;42331;53.578;9.760;2023-02-01T02:54:26;40.88;;;4.95;;
56427;SDS011;42331;53.578;9.760;2023-02-01T02:57:18;40.63;;;5.80;;
56427;SDS011;42331;53.578;9.760;2023-02-01T03:00:09;48.47;;;7.47;;
56427;SDS011;42331;53.578;9.760;2023-02-01T03:03:01;43.25;;;5.10;;
56427;SDS011;42331;53.578;9.760;2023-02-01T03:05:51;42.17;;;4.68;;
56427;SDS011;42331;53.578;9.760;2023-02-01T03:08:23;40.72;;;6.20;;
56427;SDS011;42331;53.578;9.760;2023-02-01T03:11:16;39.08;;;5.60;;
56427;SDS011;42331;53.578;9.760;2023-02-01T03:13:51;38.28;;;4.57;;
56427;SDS011;42331;53.578;9.760;2023-02-01T03:19:21;32.65;;;4.28;;
56427;SDS011;42331;53.578;9.760;2023-02-01T03:21:55;22.35;;;3.45;;
56427;SDS011;42331;53.578;9.760;2023-02-01T03:27:20;22.30;;;2.90;;
56427;SDS011;42331;53.578;9.760;2023-02-01T03:30:05;27.02;;;3.10;;
56427;SDS011;42331;53.578;9.760;2023-02-01T03:32:39;27.55;;;4.25;;
56427;SDS011;42331;53.578;9.760;2023-02-01T03:35:40;21.92;;;3.47;;
56427;SDS011;42331;53.578;9.760;2023-02-01T03:43:58;19.23;;;2.47;;
56427;SDS011;42331;53.578;9.760;2023-02-01T03:46:36;22.75;;;3.25;;
56427;SDS011;42331;53.578;9.760;2023-02-01T03:49:19;32.10;;;4.65;;
56427;SDS011;42331;53.578;9.760;2023-02-01T03:51:58;23.15;;;3.78;;
56427;SDS011;42331;53.578;9.760;2023-02-01T03:54:29;28.83;;;3.60;;
56427;SDS011;42331;53.578;9.760;2023-02-01T03:57:03;31.48;;;4.35;;
56427;SDS011;42331;53.578;9.760;2023-02-01T03:59:40;25.20;;;3.58;;
56427;SDS011;42331;53.578;9.760;2023-02-01T04:04:42;26.85;;;4.18;;
56427;SDS011;42331;53.578;9.760;2023-02-01T04:07:13;35.10;;;3.47;;
56427;SDS011;42331;53.578;9.760;2023-02-01T04:09:43;33.30;;;3.85;;
56427;SDS011;42331;53.578;9.760;2023-02-01T04:12:14;24.80;;;3.45;;
56427;SDS011;42331;53.578;9.760;2023-02-01T04:14:44;28.75;;;4.32;;
56427;SDS011;42331;53.578;9.760;2023-02-01T04:17:15;18.90;;;3.22;;
56427;SDS011;42331;53.578;9.760;2023-02-01T04:19:46;20.95;;;3.10;;
56427;SDS011;42331;53.578;9.760;2023-02-01T04:22:16;23.80;;;3.35;;
56427;SDS011;42331;53.578;9.760;2023-02-01T04:24:47;18.23;;;3.00;;
56427;SDS011;42331;53.578;9.760;2023-02-01T04:27:18;18.55;;;2.40;;
56427;SDS011;42331;53.578;9.760;2023-02-01T04:29:49;19.05;;;2.42;;
56427;SDS011;42331;53.578;9.760;2023-02-01T04:32:19;17.48;;;2.78;;
56427;SDS011;42331;53.578;9.760;2023-02-01T04:34:50;19.15;;;2.50;;
56427;SDS011;42331;53.578;9.760;2023-02-01T04:37:21;14.10;;;2.80;;
56427;SDS011;42331;53.578;9.760;2023-02-01T04:39:52;24.05;;;2.63;;
56427;SDS011;42331;53.578;9.760;2023-02-01T04:42:22;22.13;;;2.78;;
56427;SDS011;42331;53.578;9.760;2023-02-01T04:44:53;18.02;;;2.70;;
56427;SDS011;42331;53.578;9.760;2023-02-01T04:47:24;18.38;;;2.30;;
56427;SDS011;42331;53.578;9.760;2023-02-01T04:49:54;14.73;;;2.00;;
56427;SDS011;42331;53.578;9.760;2023-02-01T04:52:25;9.00;;;1.67;;
56427;SDS011;42331;53.578;9.760;2023-02-01T04:54:57;13.75;;;1.90;;
56427;SDS011;42331;53.578;9.760;2023-02-01T04:57:29;10.68;;;1.83;;
56427;SDS011;42331;53.578;9.760;2023-02-01T05:00:00;9.85;;;1.23;;
56427;SDS011;42331;53.578;9.760;2023-02-01T05:02:30;5.20;;;1.27;;
56427;SDS011;42331;53.578;9.760;2023-02-01T05:05:02;5.68;;;0.60;;
56427;SDS011;42331;53.578;9.760;2023-02-01T05:07:33;4.70;;;0.88;;
56427;SDS011;42331;53.578;9.760;2023-02-01T05:10:04;4.97;;;0.70;;
56427;SDS011;42331;53.578;9.760;2023-02-01T05:12:35;4.95;;;0.70;;
56427;SDS011;42331;53.578;9.760;2023-02-01T05:15:24;3.60;;;0.85;;
56427;SDS011;42331;53.578;9.760;2023-02-01T05:17:55;1.80;;;0.70;;
56427;SDS011;42331;53.578;9.760;2023-02-01T05:20:26;3.83;;;0.45;;
56427;SDS011;42331;53.578;9.760;2023-02-01T05:22:57;2.55;;;0.40;;
56427;SDS011;42331;53.578;9.760;2023-02-01T05:25:27;3.85;;;0.60;;
56427;SDS011;42331;53.578;9.760;2023-02-01T05:27:58;2.40;;;0.20;;
56427;SDS011;42331;53.578;9.760;2023-02-01T05:30:29;5.10;;;1.30;;
56427;SDS011;42331;53.578;9.760;2023-02-01T05:32:59;3.20;;;0.40;;
56427;SDS011;42331;53.578;9.760;2023-02-01T05:35:30;3.90;;;0.43;;
56427;SDS011;42331;53.578;9.760;2023-02-01T05:38:01;3.10;;;0.40;;
56427;SDS011;42331;53.578;9.760;2023-02-01T05:40:31;2.35;;;0.40;;
56427;SDS011;42331;53.578;9.760;2023-02-01T05:43:02;7.78;;;0.52;;
56427;SDS011;42331;53.578;9.760;2023-02-01T05:45:33;3.93;;;0.50;;
56427;SDS011;42331;53.578;9.760;2023-02-01T05:48:03;2.57;;;0.50;;
56427;SDS011;42331;53.578;9.760;2023-02-01T05:50:34;2.47;;;0.47;;
56427;SDS011;42331;53.578;9.760;2023-02-01T05:53:05;4.57;;;0.50;;
56427;SDS011;42331;53.578;9.760;2023-02-01T05:55:36;4.30;;;0.67;;
56427;SDS011;42331;53.578;9.760;2023-02-01T05:58:07;5.60;;;1.35;;
56427;SDS011;42331;53.578;9.760;2023-02-01T06:00:38;4.13;;;0.50;;
56427;SDS011;42331;53.578;9.760;2023-02-01T06:03:09;4.00;;;0.90;;
56427;SDS011;42331;53.578;9.760;2023-02-01T06:05:39;4.30;;;0.80;;
56427;SDS011;42331;53.578;9.760;2023-02-01T06:08:10;5.07;;;0.90;;
56427;SDS011;42331;53.578;9.760;2023-02-01T06:10:41;6.72;;;1.08;;
56427;SDS011;42331;53.578;9.760;2023-02-01T06:13:12;5.93;;;0.80;;
56427;SDS011;42331;53.578;9.760;2023-02-01T06:15:43;10.60;;;1.00;;
56427;SDS011;42331;53.578;9.760;2023-02-01T06:18:14;7.95;;;1.17;;
56427;SDS011;42331;53.578;9.760;2023-02-01T06:20:51;12.40;;;1.30;;
56427;SDS011;42331;53.578;9.760;2023-02-01T06:23:25;10.63;;;1.42;;
56427;SDS011;42331;53.578;9.760;2023-02-01T06:26:04;14.30;;;1.83;;
56427;SDS011;42331;53.578;9.760;2023-02-01T06:28:37;13.63;;;2.13;;
56427;SDS011;42331;53.578;9.760;2023-02-01T06:31:09;16.92;;;1.55;;
56427;SDS011;42331;53.578;9.760;2023-02-01T06:33:40;14.90;;;1.83;;
56427;SDS011;42331;53.578;9.760;2023-02-01T06:36:11;17.20;;;1.98;;
56427;SDS011;42331;53.578;9.760;2023-02-01T06:38:45;14.55;;;1.50;;
56427;SDS011;42331;53.578;9.760;2023-02-01T06:41:17;18.67;;;2.35;;
56427;SDS011;42331;53.578;9.760;2023-02-01T06:43:50;12.18;;;1.88;;
56427;SDS011;42331;53.578;9.760;2023-02-01T06:46:21;17.05;;;1.88;;
56427;SDS011;42331;53.578;9.760;2023-02-01T06:48:52;17.95;;;1.92;;
56427;SDS011;42331;53.578;9.760;2023-02-01T06:51:26;19.80;;;2.60;;
56427;SDS011;42331;53.578;9.760;2023-02-01T06:53:58;20.75;;;2.63;;
56427;SDS011;42331;53.578;9.760;2023-02-01T06:56:29;25.20;;;3.10;;
56427;SDS011;42331;53.578;9.760;2023-02-01T06:59:03;24.27;;;2.75;;
56427;SDS011;42331;53.578;9.760;2023-02-01T07:01:34;25.48;;;2.67;;
56427;SDS011;42331;53.578;9.760;2023-02-01T07:04:05;22.33;;;2.95;;
56427;SDS011;42331;53.578;9.760;2023-02-01T07:06:36;27.50;;;3.22;;
56427;SDS011;42331;53.578;9.760;2023-02-01T07:09:07;36.97;;;4.03;;
56427;SDS011;42331;53.578;9.760;2023-02-01T07:11:38;25.58;;;3.75;;
56427;SDS011;42331;53.578;9.760;2023-02-01T07:14:13;31.83;;;3.83;;
56427;SDS011;42331;53.578;9.760;2023-02-01T07:16:43;24.42;;;2.85;;
56427;SDS011;42331;53.578;9.760;2023-02-01T07:19:14;29.00;;;3.85;;
56427;SDS011;42331;53.578;9.760;2023-02-01T07:21:45;33.03;;;3.90;;
56427;SDS011;42331;53.578;9.760;2023-02-01T07:24:16;39.72;;;4.30;;
56427;SDS011;42331;53.578;9.760;2023-02-01T07:26:46;39.15;;;5.18;;
56427;SDS011;42331;53.578;9.760;2023-02-01T07:29:18;32.97;;;4.78;;
56427;SDS011;42331;53.578;9.760;2023-02-01T07:31:49;48.45;;;4.97;;
56427;SDS011;42331;53.578;9.760;2023-02-01T07:34:19;38.72;;;4.47;;
56427;SDS011;42331;53.578;9.760;2023-02-01T07:36:50;40.03;;;5.55;;
56427;SDS011;42331;53.578;9.760;2023-02-01T07:39:21;40.20;;;5.65;;
56427;SDS011;42331;53.578;9.760;2023-02-01T07:41:51;29.05;;;3.28;;
56427;SDS011;42331;53.578;9.760;2023-02-01T07:44:22;35.33;;;4.40;;
56427;SDS011;42331;53.578;9.760;2023-02-01T07:46:53;41.42;;;5.78;;
56427;SDS011;42331;53.578;9.760;2023-02-01T07:49:23;48.20;;;7.25;;
56427;SDS011;42331;53.578;9.760;2023-02-01T07:51:54;45.78;;;6.07;;
56427;SDS011;42331;53.578;9.760;2023-02-01T07:54:25;32.55;;;4.72;;
56427;SDS011;42331;53.578;9.760;2023-02-01T07:56:56;43.28;;;4.88;;
56427;SDS011;42331;53.578;9.760;2023-02-01T07:59:26;50.28;;;5.07;;
56427;SDS011;42331;53.578;9.760;2023-02-01T08:01:57;33.05;;;4.60;;
56427;SDS011;42331;53.578;9.760;2023-02-01T08:04:28;31.70;;;3.83;;
56427;SDS011;42331;53.578;9.760;2023-02-01T08:06:59;39.67;;;5.38;;
56427;SDS011;42331;53.578;9.760;2023-02-01T08:09:29;37.65;;;4.93;;
56427;SDS011;42331;53.578;9.760;2023-02-01T08:12:01;39.60;;;4.82;;
56427;SDS011;42331;53.578;9.760;2023-02-01T08:14:31;32.47;;;5.10;;
56427;SDS011;42331;53.578;9.760;2023-02-01T08:17:02;47.15;;;5.18;;
56427;SDS011;42331;53.578;9.760;2023-02-01T08:19:33;39.40;;;4.67;;
56427;SDS011;42331;53.578;9.760;2023-02-01T08:22:03;46.45;;;5.13;;
56427;SDS011;42331;53.578;9.760;2023-02-01T08:24:36;38.78;;;5.20;;
56427;SDS011;42331;53.578;9.760;2023-02-01T08:27:10;27.55;;;3.45;;
56427;SDS011;42331;53.578;9.760;2023-02-01T08:29:42;29.67;;;3.95;;
56427;SDS011;42331;53.578;9.760;2023-02-01T08:32:13;25.65;;;4.43;;
56427;SDS011;42331;53.578;9.760;2023-02-01T08:34:43;28.23;;;4.28;;
56427;SDS011;42331;53.578;9.760;2023-02-01T08:37:14;36.72;;;4.43;;
56427;SDS011;42331;53.578;9.760;2023-02-01T08:39:45;26.17;;;4.47;;
56427;SDS011;42331;53.578;9.760;2023-02-01T08:42:17;27.23;;;3.95;;
56427;SDS011;42331;53.578;9.760;2023-02-01T08:45:06;36.53;;;5.18;;
56427;SDS011;42331;53.578;9.760;2023-02-01T08:47:40;39.90;;;4.78;;
56427;SDS011;42331;53.578;9.760;2023-02-01T08:50:11;23.90;;;4.63;;
56427;SDS011;42331;53.578;9.760;2023-02-01T08:52:42;29.85;;;4.00;;
56427;SDS011;42331;53.578;9.760;2023-02-01T08:55:13;35.10;;;4.00;;
56427;SDS011;42331;53.578;9.760;2023-02-01T08:57:45;27.63;;;3.50;;
56427;SDS011;42331;53.578;9.760;2023-02-01T09:00:17;27.25;;;3.97;;
56427;SDS011;42331;53.578;9.760;2023-02-01T09:02:48;24.95;;;3.53;;
56427;SDS011;42331;53.578;9.760;2023-02-01T09:05:19;35.03;;;4.40;;
56427;SDS011;42331;53.578;9.760;2023-02-01T09:07:52;29.45;;;4.32;;
56427;SDS011;42331;53.578;9.760;2023-02-01T09:10:23;31.90;;;3.73;;
56427;SDS011;42331;53.578;9.760;2023-02-01T09:12:53;30.02;;;4.10;;
56427;SDS011;42331;53.578;9.760;2023-02-01T09:15:24;36.53;;;4.22;;
56427;SDS011;42331;53.578;9.760;2023-02-01T09:17:55;25.40;;;3.50;;
56427;SDS011;42331;53.578;9.760;2023-02-01T09:20:26;34.17;;;4.07;;
56427;SDS011;42331;53.578;9.760;2023-02-01T09:22:56;30.55;;;4.32;;
56427;SDS011;42331;53.578;9.760;2023-02-01T09:25:27;27.05;;;4.50;;
56427;SDS011;42331;53.578;9.760;2023-02-01T09:27:58;30.23;;;3.65;;
56427;SDS011;42331;53.578;9.760;2023-02-01T09:30:29;25.67;;;4.13;;
56427;SDS011;42331;53.578;9.760;2023-02-01T09:32:59;28.58;;;4.57;;
56427;SDS011;42331;53.578;9.760;2023-02-01T09:35:30;21.17;;;3.50;;
56427;SDS011;42331;53.578;9.760;2023-02-01T09:38:01;25.55;;;3.55;;
56427;SDS011;42331;53.578;9.760;2023-02-01T09:40:33;28.27;;;3.55;;
56427;SDS011;42331;53.578;9.760;2023-02-01T09:48:55;28.00;;;4.13;;
56427;SDS011;42331;53.578;9.760;2023-02-01T09:51:35;37.85;;;6.68;;
56427;SDS011;42331;53.578;9.760;2023-02-01T09:54:13;32.35;;;3.65;;
56427;SDS011;42331;53.578;9.760;2023-02-01T09:56:56;37.33;;;3.78;;
56427;SDS011;42331;53.578;9.760;2023-02-01T09:59:39;32.27;;;3.80;;
56427;SDS011;42331;53.578;9.760;2023-02-01T10:02:21;20.17;;;3.13;;
56427;SDS011;42331;53.578;9.760;2023-02-01T10:04:57;30.77;;;3.38;;
56427;SDS011;42331;53.578;9.760;2023-02-01T10:10:54;22.90;;;3.50;;
56427;SDS011;42331;53.578;9.760;2023-02-01T10:16:56;35.08;;;3.75;;
56427;SDS011;42331;53.578;9.760;2023-02-01T10:25:26;31.33;;;4.13;;
56427;SDS011;42331;53.578;9.760;2023-02-01T10:28:32;29.90;;;3.72;;
56427;SDS011;42331;53.578;9.760;2023-02-01T10:31:13;40.20;;;3.30;;
56427;SDS011;42331;53.578;9.760;2023-02-01T10:34:01;35.05;;;4.85;;
56427;SDS011;42331;53.578;9.760;2023-02-01T10:37:01;24.85;;;3.17;;
56427;SDS011;42331;53.578;9.760;2023-02-01T10:40:12;28.10;;;3.38;;
56427;SDS011;42331;53.578;9.760;2023-02-01T10:42:57;30.67;;;3.30;;
56427;SDS011;42331;53.578;9.760;2023-02-01T10:45:42;30.63;;;4.10;;
56427;SDS011;42331;53.578;9.760;2023-02-01T10:48:24;24.13;;;4.03;;
56427;SDS011;42331;53.578;9.760;2023-02-01T10:51:02;22.95;;;3.67;;
56427;SDS011;42331;53.578;9.760;2023-02-01T10:54:05;25.30;;;3.60;;
56427;SDS011;42331;53.578;9.760;2023-02-01T11:04:00;23.08;;;3.03;;
56427;SDS011;42331;53.578;9.760;2023-02-01T11:07:04;22.27;;;3.65;;
56427;SDS011;42331;53.578;9.760;2023-02-01T11:09:53;25.20;;;3.55;;
56427;SDS011;42331;53.578;9.760;2023-02-01T11:15:15;22.83;;;3.35;;
56427;SDS011;42331;53.578;9.760;2023-02-01T11:17:51;32.05;;;4.55;;
56427;SDS011;42331;53.578;9.760;2023-02-01T11:23:01;29.75;;;3.90;;
56427;SDS011;42331;53.578;9.760;2023-02-01T11:25:33;25.45;;;3.60;;
56427;SDS011;42331;53.578;9.760;2023-02-01T11:28:07;26.33;;;3.75;;
56427;SDS011;42331;53.578;9.760;2023-02-01T11:30:38;28.48;;;3.55;;
56427;SDS011;42331;53.578;9.760;2023-02-01T11:33:27;25.52;;;3.25;;
56427;SDS011;42331;53.578;9.760;2023-02-01T11:36:18;21.88;;;3.17;;
56427;SDS011;42331;53.578;9.760;2023-02-01T11:39:07;18.92;;;3.42;;
56427;SDS011;42331;53.578;9.760;2023-02-01T11:41:55;30.50;;;3.58;;
56427;SDS011;42331;53.578;9.760;2023-02-01T11:50:02;13.73;;;1.90;;
56427;SDS011;42331;53.578;9.760;2023-02-01T11:58:33;9.38;;;1.65;;
56427;SDS011;42331;53.578;9.760;2023-02-01T12:04:48;18.10;;;2.47;;
56427;SDS011;42331;53.578;9.760;2023-02-01T12:10:56;21.83;;;2.55;;
56427;SDS011;42331;53.578;9.760;2023-02-01T12:13:53;21.13;;;2.83;;
56427;SDS011;42331;53.578;9.760;2023-02-01T12:22:02;16.60;;;2.70;;
56427;SDS011;42331;53.578;9.760;2023-02-01T12:24:54;10.65;;;1.63;;
56427;SDS011;42331;53.578;9.760;2023-02-01T12:27:53;9.43;;;0.98;;
56427;SDS011;42331;53.578;9.760;2023-02-01T12:30:48;8.60;;;0.93;;
56427;SDS011;42331;53.578;9.760;2023-02-01T12:41:55;2.78;;;0.50;;
56427;SDS011;42331;53.578;9.760;2023-02-01T12:44:44;3.78;;;0.82;;
56427;SDS011;42331;53.578;9.760;2023-02-01T12:47:40;5.43;;;1.20;;
56427;SDS011;42331;53.578;9.760;2023-02-01T12:50:25;3.28;;;0.80;;
56427;SDS011;42331;53.578;9.760;2023-02-01T12:53:07;3.67;;;0.60;;
56427;SDS011;42331;53.578;9.760;2023-02-01T12:55:54;3.90;;;0.50;;
56427;SDS011;42331;53.578;9.760;2023-02-01T12:58:44;1.90;;;0.57;;
56427;SDS011;42331;53.578;9.760;2023-02-01T13:01:27;2.85;;;0.50;;
56427;SDS011;42331;53.578;9.760;2023-02-01T13:04:25;4.40;;;0.73;;
56427;SDS011;42331;53.578;9.760;2023-02-01T13:07:19;2.33;;;0.52;;
56427;SDS011;42331;53.578;9.760;2023-02-01T13:10:24;3.95;;;0.50;;
56427;SDS011;42331;53.578;9.760;2023-02-01T13:13:04;3.78;;;0.50;;
56427;SDS011;42331;53.578;9.760;2023-02-01T13:15:53;1.95;;;0.50;;
56427;SDS011;42331;53.578;9.760;2023-02-01T13:18:34;5.18;;;0.70;;
56427;SDS011;42331;53.578;9.760;2023-02-01T13:21:08;1.60;;;0.50;;
56427;SDS011;42331;53.578;9.760;2023-02-01T13:23:48;3.47;;;0.30;;
56427;SDS011;42331;53.578;9.760;2023-02-01T13:26:20;1.83;;;0.50;;
56427;SDS011;42331;53.578;9.760;2023-02-01T13:28:51;4.68;;;0.60;;
56427;SDS011;42331;53.578;9.760;2023-02-01T13:37:22;3.30;;;0.50;;
56427;SDS011;42331;53.578;9.760;2023-02-01T13:40:40;3.25;;;0.60;;
56427;SDS011;42331;53.578;9.760;2023-02-01T13:43:11;4.18;;;0.70;;
56427;SDS011;42331;53.578;9.760;2023-02-01T13:45:53;4.40;;;0.60;;
56427;SDS011;42331;53.578;9.760;2023-02-01T13:48:33;12.20;;;1.77;;
56427;SDS011;42331;53.578;9.760;2023-02-01T13:51:11;6.63;;;0.90;;
56427;SDS011;42331;53.578;9.760;2023-02-01T13:53:47;6.82;;;0.95;;
56427;SDS011;42331;53.578;9.760;2023-02-01T13:56:19;5.40;;;0.80;;
56427;SDS011;42331;53.578;9.760;2023-02-01T13:58:58;9.05;;;0.85;;
56427;SDS011;42331;53.578;9.760;2023-02-01T14:08:02;10.32;;;0.90;;
56427;SDS011;42331;53.578;9.760;2023-02-01T14:13:31;10.57;;;1.63;;
56427;SDS011;42331;53.578;9.760;2023-02-01T14:16:13;10.20;;;1.35;;
56427;SDS011;42331;53.578;9.760;2023-02-01T14:18:49;12.93;;;1.40;;
56427;SDS011;42331;53.578;9.760;2023-02-01T14:21:32;14.27;;;1.50;;
56427;SDS011;42331;53.578;9.760;2023-02-01T14:26:49;22.63;;;2.47;;
56427;SDS011;42331;53.578;9.760;2023-02-01T14:29:26;16.00;;;1.75;;
56427;SDS011;42331;53.578;9.760;2023-02-01T14:34:56;13.05;;;1.25;;
56427;SDS011;42331;53.578;9.760;2023-02-01T14:37:42;13.35;;;1.70;;
56427;SDS011;42331;53.578;9.760;2023-02-01T14:40:16;15.45;;;1.88;;
56427;SDS011;42331;53.578;9.760;2023-02-01T14:42:59;15.95;;;1.98;;
56427;SDS011;42331;53.578;9.760;2023-02-01T14:50:38;17.92;;;2.45;;
56427;SDS011;42331;53.578;9.760;2023-02-01T14:53:16;24.52;;;3.08;;
56427;SDS011;42331;53.578;9.760;2023-02-01T15:01:48;21.95;;;2.47;;
56427;SDS011;42331;53.578;9.760;2023-02-01T15:04:26;15.35;;;2.33;;
56427;SDS011;42331;53.578;9.760;2023-02-01T15:07:11;18.42;;;2.47;;
56427;SDS011;42331;53.578;9.760;2023-02-01T15:09:45;18.58;;;2.38;;
56427;SDS011;42331;53.578;9.760;2023-02-01T15:12:22;13.50;;;2.38;;
56427;SDS011;42331;53.578;9.760;2023-02-01T15:15:11;19.52;;;1.88;;
56427;SDS011;42331;53.578;9.760;2023-02-01T15:17:51;14.25;;;1.73;;
56427;SDS011;42331;53.578;9.760;2023-02-01T15:20:24;13.48;;;1.52;;
56427;SDS011;42331;53.578;9.760;2023-02-01T15:25:34;11.48;;;1.70;;
56427;SDS011;42331;53.578;9.760;2023-02-01T15:28:10;13.52;;;1.88;;
56427;SDS011;42331;53.578;9.760;2023-02-01T15:30:52;14.15;;;1.83;;
56427;SDS011;42331;53.578;9.760;2023-02-01T15:33:29;22.75;;;2.47;;
56427;SDS011;42331;53.578;9.760;2023-02-01T15:36:09;17.23;;;2.10;;
56427;SDS011;42331;53.578;9.760;2023-02-01T15:38:48;18.27;;;2.33;;
56427;SDS011;42331;53.578;9.760;2023-02-01T15:41:46;16.00;;;2.00;;
56427;SDS011;42331;53.578;9.760;2023-02-01T15:44:50;23.27;;;2.50;;
56427;SDS011;42331;53.578;9.760;2023-02-01T15:47:25;26.83;;;2.70;;
56427;SDS011;42331;53.578;9.760;2023-02-01T15:49:59;18.92;;;2.55;;
56427;SDS011;42331;53.578;9.760;2023-02-01T15:52:39;23.63;;;2.70;;
56427;SDS011;42331;53.578;9.760;2023-02-01T15:55:21;15.60;;;2.33;;
56427;SDS011;42331;53.578;9.760;2023-02-01T15:58:20;25.95;;;2.97;;
56427;SDS011;42331;53.578;9.760;2023-02-01T16:00:56;25.38;;;3.05;;
56427;SDS011;42331;53.578;9.760;2023-02-01T16:03:37;21.73;;;2.50;;
56427;SDS011;42331;53.578;9.760;2023-02-01T16:16:32;35.40;;;3.40;;
56427;SDS011;42331;53.578;9.760;2023-02-01T16:19:03;27.70;;;3.83;;
56427;SDS011;42331;53.578;9.760;2023-02-01T16:21:33;35.97;;;3.92;;
56427;SDS011;42331;53.578;9.760;2023-02-01T16:24:06;30.35;;;4.03;;
56427;SDS011;42331;53.578;9.760;2023-02-01T16:26:37;32.65;;;3.85;;
56427;SDS011;42331;53.578;9.760;2023-02-01T16:29:09;29.48;;;4.63;;
56427;SDS011;42331;53.578;9.760;2023-02-01T16:31:40;33.53;;;3.63;;
56427;SDS011;42331;53.578;9.760;2023-02-01T16:34:15;31.33;;;4.22;;
56427;SDS011;42331;53.578;9.760;2023-02-01T16:36:48;39.53;;;4.25;;
56427;SDS011;42331;53.578;9.760;2023-02-01T16:39:25;39.75;;;4.95;;
56427;SDS011;42331;53.578;9.760;2023-02-01T16:41:57;42.38;;;5.30;;
56427;SDS011;42331;53.578;9.760;2023-02-01T16:44:28;37.50;;;5.03;;
56427;SDS011;42331;53.578;9.760;2023-02-01T16:46:59;47.92;;;5.50;;
56427;SDS011;42331;53.578;9.760;2023-02-01T16:49:29;34.88;;;4.85;;
56427;SDS011;42331;53.578;9.760;2023-02-01T16:52:00;43.60;;;6.03;;
56427;SDS011;42331;53.578;9.760;2023-02-01T16:54:31;37.07;;;4.50;;
56427;SDS011;42331;53.578;9.760;2023-02-01T16:57:02;39.50;;;5.15;;
56427;SDS011;42331;53.578;9.760;2023-02-01T16:59:36;34.83;;;4.53;;
56427;SDS011;42331;53.578;9.760;2023-02-01T17:02:10;37.67;;;5.53;;
56427;SDS011;42331;53.578;9.760;2023-02-01T17:04:42;36.38;;;4.32;;
56427;SDS011;42331;53.578;9.760;2023-02-01T17:07:19;35.55;;;4.18;;
56427;SDS011;42331;53.578;9.760;2023-02-01T17:09:53;46.47;;;6.25;;
56427;SDS011;42331;53.578;9.760;2023-02-01T17:12:36;40.60;;;4.60;;
56427;SDS011;42331;53.578;9.760;2023-02-01T17:15:08;39.90;;;4.97;;
56427;SDS011;42331;53.578;9.760;2023-02-01T17:17:40;36.83;;;5.13;;
56427;SDS011;42331;53.578;9.760;2023-02-01T17:22:49;28.35;;;4.53;;
56427;SDS011;42331;53.578;9.760;2023-02-01T17:25:20;31.75;;;5.03;;
56427;SDS011;42331;53.578;9.760;2023-02-01T17:27:52;35.95;;;4.47;;
56427;SDS011;42331;53.578;9.760;2023-02-01T17:30:22;40.80;;;5.75;;
56427;SDS011;42331;53.578;9.760;2023-02-01T17:32:53;28.08;;;3.63;;
56427;SDS011;42331;53.578;9.760;2023-02-01T17:35:26;27.83;;;4.53;;
56427;SDS011;42331;53.578;9.760;2023-02-01T17:37:58;29.95;;;3.97;;
56427;SDS011;42331;53.578;9.760;2023-02-01T17:40:29;26.30;;;3.83;;
56427;SDS011;42331;53.578;9.760;2023-02-01T17:43:00;20.65;;;3.22;;
56427;SDS011;42331;53.578;9.760;2023-02-01T17:45:35;20.77;;;3.58;;
56427;SDS011;42331;53.578;9.760;2023-02-01T17:48:09;35.13;;;4.70;;
56427;SDS011;42331;53.578;9.760;2023-02-01T17:50:40;27.00;;;4.32;;
56427;SDS011;42331;53.578;9.760;2023-02-01T17:53:11;25.73;;;3.53;;